KCLT/CLT METAR and TAF weather

Enter ICAO airport designator
Station Type Date Time Source
KCLT METAR 2022/09/26 07:52 UTC NOAA

KCLT 260752Z 35003KT 8SM FEW070 15/15 A2987 RMK SLP108 T01500150 $


Station Type Date Time Source
KCLT Decoded METAR 2022/09/26 07:52 UTC NOAA

CHARLOTTE/DOUGLAS INTERNATIONAL , NC, United States (KCLT) 35-13N 80-57W 220M
Sep 26, 2022 - 03:52 AM EDT / 2022.09.26 0752 UTC
Wind: from the N (350 degrees) at 3 MPH (3 KT):0
Visibility: 8 mile(s):0
Sky conditions: mostly clear
Temperature: 59.0 F (15.0 C)
Dew Point: 59.0 F (15.0 C)
Relative Humidity: 100%
Pressure (altimeter): 29.87 in. Hg (1011 hPa)
ob: KCLT 260752Z 35003KT 8SM FEW070 15/15 A2987 RMK SLP108 T01500150
cycle: 8

Station Type Date Time Source
KCLT TAF 2022/09/26 08:03 UTC NOAA

TAF
AMD KCLT 260800Z 2608/2712 36004KT P6SM FEW120
TEMPO 2608/2612 5SM BR
FM261400 29004KT P6SM FEW250
FM261700 29010G18KT P6SM SKC
FM270000 32004KT P6SM FEW250

Example: see airport list